sensor_id;sensor_type;location;lat;lon;timestamp;pressure;altitude;pressure_sealevel;temperature;humidity
9746;BME280;4912;50.836;12.958;2023-07-30T00:02:25;97243.94;;;19.80;89.86
9746;BME280;4912;50.836;12.958;2023-07-30T00:04:56;97239.53;;;19.84;87.96
9746;BME280;4912;50.836;12.958;2023-07-30T00:07:27;97240.78;;;19.96;88.38
9746;BME280;4912;50.836;12.958;2023-07-30T00:09:57;97230.03;;;20.08;87.46
9746;BME280;4912;50.836;12.958;2023-07-30T00:12:30;97231.41;;;20.15;86.53
9746;BME280;4912;50.836;12.958;2023-07-30T00:15:01;97234.16;;;20.28;87.29
9746;BME280;4912;50.836;12.958;2023-07-30T00:17:32;97229.78;;;20.40;87.20
9746;BME280;4912;50.836;12.958;2023-07-30T00:20:07;97234.88;;;20.41;88.08
9746;BME280;4912;50.836;12.958;2023-07-30T00:22:40;97233.97;;;20.47;88.05
9746;BME280;4912;50.836;12.958;2023-07-30T00:25:11;97226.31;;;20.47;87.54
9746;BME280;4912;50.836;12.958;2023-07-30T00:27:44;97231.72;;;20.45;88.10
9746;BME280;4912;50.836;12.958;2023-07-30T00:30:15;97220.69;;;20.47;88.17
9746;BME280;4912;50.836;12.958;2023-07-30T00:32:46;97216.97;;;20.52;87.96
9746;BME280;4912;50.836;12.958;2023-07-30T00:35:16;97210.19;;;20.48;88.17
9746;BME280;4912;50.836;12.958;2023-07-30T00:37:47;97209.44;;;20.47;88.41
9746;BME280;4912;50.836;12.958;2023-07-30T00:40:18;97213.94;;;20.50;88.52
9746;BME280;4912;50.836;12.958;2023-07-30T00:42:51;97208.34;;;20.50;85.69
9746;BME280;4912;50.836;12.958;2023-07-30T00:45:22;97216.75;;;20.50;85.44
9746;BME280;4912;50.836;12.958;2023-07-30T00:47:54;97211.84;;;20.43;83.98
9746;BME280;4912;50.836;12.958;2023-07-30T00:50:24;97226.47;;;20.28;84.74
9746;BME280;4912;50.836;12.958;2023-07-30T00:52:55;97233.81;;;20.11;86.18
9746;BME280;4912;50.836;12.958;2023-07-30T00:55:26;97248.72;;;20.06;87.57
9746;BME280;4912;50.836;12.958;2023-07-30T00:57:59;97250.53;;;19.82;89.82
9746;BME280;4912;50.836;12.958;2023-07-30T01:00:30;97250.53;;;19.82;90.47
9746;BME280;4912;50.836;12.958;2023-07-30T01:03:01;97245.47;;;19.81;91.66
9746;BME280;4912;50.836;12.958;2023-07-30T01:05:32;97253.69;;;19.79;92.99
9746;BME280;4912;50.836;12.958;2023-07-30T01:08:03;97243.66;;;19.70;93.80
9746;BME280;4912;50.836;12.958;2023-07-30T01:10:35;97242.69;;;19.68;94.33
9746;BME280;4912;50.836;12.958;2023-07-30T01:13:10;97239.34;;;19.69;95.02
9746;BME280;4912;50.836;12.958;2023-07-30T01:15:42;97231.13;;;19.71;95.38
9746;BME280;4912;50.836;12.958;2023-07-30T01:18:13;97231.22;;;19.79;95.54
9746;BME280;4912;50.836;12.958;2023-07-30T01:20:43;97227.72;;;19.86;95.43
9746;BME280;4912;50.836;12.958;2023-07-30T01:23:16;97231.38;;;19.94;94.11
9746;BME280;4912;50.836;12.958;2023-07-30T01:25:53;97226.19;;;19.98;93.04
9746;BME280;4912;50.836;12.958;2023-07-30T01:28:35;97237.97;;;19.96;92.76
9746;BME280;4912;50.836;12.958;2023-07-30T01:31:08;97239.69;;;19.99;92.96
9746;BME280;4912;50.836;12.958;2023-07-30T01:33:40;97236.81;;;20.13;92.76
9746;BME280;4912;50.836;12.958;2023-07-30T01:36:15;97245.88;;;20.19;92.69
9746;BME280;4912;50.836;12.958;2023-07-30T01:38:49;97249.72;;;20.29;92.73
9746;BME280;4912;50.836;12.958;2023-07-30T01:41:21;97249.59;;;20.34;93.70
9746;BME280;4912;50.836;12.958;2023-07-30T01:43:51;97247.56;;;20.35;92.24
9746;BME280;4912;50.836;12.958;2023-07-30T01:46:22;97257.38;;;20.28;91.01
9746;BME280;4912;50.836;12.958;2023-07-30T01:48:53;97245.75;;;20.24;91.23
9746;BME280;4912;50.836;12.958;2023-07-30T01:51:23;97248.19;;;20.28;93.93
9746;BME280;4912;50.836;12.958;2023-07-30T01:53:57;97236.09;;;20.33;94.39
9746;BME280;4912;50.836;12.958;2023-07-30T01:56:28;97235.97;;;20.38;94.08
9746;BME280;4912;50.836;12.958;2023-07-30T01:58:58;97235.81;;;20.44;94.95
9746;BME280;4912;50.836;12.958;2023-07-30T02:01:28;97238.09;;;20.46;94.99
9746;BME280;4912;50.836;12.958;2023-07-30T02:03:59;97231.94;;;20.47;95.09
9746;BME280;4912;50.836;12.958;2023-07-30T02:06:32;97233.63;;;20.50;95.22
9746;BME280;4912;50.836;12.958;2023-07-30T02:09:05;97231.56;;;20.51;95.83
9746;BME280;4912;50.836;12.958;2023-07-30T02:11:37;97229.50;;;20.51;96.13
9746;BME280;4912;50.836;12.958;2023-07-30T02:14:09;97231.03;;;20.52;95.73
9746;BME280;4912;50.836;12.958;2023-07-30T02:16:40;97225.41;;;20.52;95.68
9746;BME280;4912;50.836;12.958;2023-07-30T02:19:13;97228.50;;;20.41;95.77
9746;BME280;4912;50.836;12.958;2023-07-30T02:21:43;97230.47;;;20.33;96.15
9746;BME280;4912;50.836;12.958;2023-07-30T02:24:16;97235.13;;;20.30;96.52
9746;BME280;4912;50.836;12.958;2023-07-30T02:26:48;97230.25;;;20.31;96.50
9746;BME280;4912;50.836;12.958;2023-07-30T02:29:18;97234.16;;;20.28;96.28
9746;BME280;4912;50.836;12.958;2023-07-30T02:31:49;97233.22;;;20.25;96.45
9746;BME280;4912;50.836;12.958;2023-07-30T02:34:19;97238.59;;;20.23;96.67
9746;BME280;4912;50.836;12.958;2023-07-30T02:36:53;97246.28;;;20.23;96.78
9746;BME280;4912;50.836;12.958;2023-07-30T02:39:26;97230.94;;;20.24;96.65
9746;BME280;4912;50.836;12.958;2023-07-30T02:41:57;97232.44;;;20.25;96.16
9746;BME280;4912;50.836;12.958;2023-07-30T02:44:27;97247.13;;;20.31;95.84
9746;BME280;4912;50.836;12.958;2023-07-30T02:46:57;97246.91;;;20.29;95.89
9746;BME280;4912;50.836;12.958;2023-07-30T02:49:28;97240.13;;;20.24;95.66
9746;BME280;4912;50.836;12.958;2023-07-30T02:51:59;97237.91;;;20.10;96.43
9746;BME280;4912;50.836;12.958;2023-07-30T02:54:32;97235.56;;;20.00;96.45
9746;BME280;4912;50.836;12.958;2023-07-30T02:57:03;97224.47;;;19.95;96.41
9746;BME280;4912;50.836;12.958;2023-07-30T02:59:34;97238.94;;;19.99;96.40
9746;BME280;4912;50.836;12.958;2023-07-30T03:02:08;97228.09;;;20.03;95.79
9746;BME280;4912;50.836;12.958;2023-07-30T03:04:39;97227.03;;;20.06;95.84
9746;BME280;4912;50.836;12.958;2023-07-30T03:07:09;97231.88;;;20.06;95.85
9746;BME280;4912;50.836;12.958;2023-07-30T03:09:42;97222.16;;;20.07;95.70
9746;BME280;4912;50.836;12.958;2023-07-30T03:12:13;97226.25;;;20.06;95.06
9746;BME280;4912;50.836;12.958;2023-07-30T03:14:43;97239.78;;;20.07;95.59
9746;BME280;4912;50.836;12.958;2023-07-30T03:17:14;97244.22;;;20.02;95.26
9746;BME280;4912;50.836;12.958;2023-07-30T03:19:44;97234.47;;;20.03;95.47
9746;BME280;4912;50.836;12.958;2023-07-30T03:22:16;97228.09;;;20.03;95.11
9746;BME280;4912;50.836;12.958;2023-07-30T03:24:49;97236.00;;;20.04;95.15
9746;BME280;4912;50.836;12.958;2023-07-30T03:27:20;97244.22;;;20.02;95.31
9746;BME280;4912;50.836;12.958;2023-07-30T03:29:50;97239.56;;;20.05;95.13
9746;BME280;4912;50.836;12.958;2023-07-30T03:32:21;97242.28;;;19.97;95.28
9746;BME280;4912;50.836;12.958;2023-07-30T03:34:51;97234.81;;;20.00;95.34
9746;BME280;4912;50.836;12.958;2023-07-30T03:37:22;97245.72;;;20.03;95.10
9746;BME280;4912;50.836;12.958;2023-07-30T03:39:56;97247.22;;;20.04;95.02
9746;BME280;4912;50.836;12.958;2023-07-30T03:42:26;97242.72;;;20.01;95.53
9746;BME280;4912;50.836;12.958;2023-07-30T03:44:57;97240.44;;;20.00;95.61
9746;BME280;4912;50.836;12.958;2023-07-30T03:47:27;97243.59;;;19.96;95.61
9746;BME280;4912;50.836;12.958;2023-07-30T03:49:58;97246.19;;;19.94;95.55
9746;BME280;4912;50.836;12.958;2023-07-30T03:52:28;97243.38;;;19.94;95.28
9746;BME280;4912;50.836;12.958;2023-07-30T03:55:01;97240.34;;;19.92;95.84
9746;BME280;4912;50.836;12.958;2023-07-30T03:57:32;97233.69;;;19.82;95.85
9746;BME280;4912;50.836;12.958;2023-07-30T04:00:04;97243.81;;;19.85;96.14
9746;BME280;4912;50.836;12.958;2023-07-30T04:02:41;97251.59;;;19.92;95.97
9746;BME280;4912;50.836;12.958;2023-07-30T04:05:12;97251.25;;;19.96;96.11
9746;BME280;4912;50.836;12.958;2023-07-30T04:07:42;97249.84;;;20.02;95.81
9746;BME280;4912;50.836;12.958;2023-07-30T04:10:16;97247.84;;;20.11;94.78
9746;BME280;4912;50.836;12.958;2023-07-30T04:12:46;97247.53;;;20.14;95.01
9746;BME280;4912;50.836;12.958;2023-07-30T04:15:19;97242.22;;;20.11;95.19
9746;BME280;4912;50.836;12.958;2023-07-30T04:17:50;97246.19;;;20.15;94.99
9746;BME280;4912;50.836;12.958;2023-07-30T04:20:20;97256.56;;;20.20;94.32
9746;BME280;4912;50.836;12.958;2023-07-30T04:22:51;97255.34;;;20.29;94.25
9746;BME280;4912;50.836;12.958;2023-07-30T04:25:24;97252.53;;;20.29;94.26
9746;BME280;4912;50.836;12.958;2023-07-30T04:27:55;97261.94;;;20.31;94.34
9746;BME280;4912;50.836;12.958;2023-07-30T04:30:26;97266.16;;;20.38;94.29
9746;BME280;4912;50.836;12.958;2023-07-30T04:32:57;97261.09;;;20.44;94.04
9746;BME280;4912;50.836;12.958;2023-07-30T04:35:27;97264.34;;;20.48;94.54
9746;BME280;4912;50.836;12.958;2023-07-30T04:37:58;97269.84;;;20.54;94.10
9746;BME280;4912;50.836;12.958;2023-07-30T04:40:32;97269.69;;;20.59;94.26
9746;BME280;4912;50.836;12.958;2023-07-30T04:43:03;97266.53;;;20.63;93.90
9746;BME280;4912;50.836;12.958;2023-07-30T04:45:33;97270.16;;;20.71;92.88
9746;BME280;4912;50.836;12.958;2023-07-30T04:48:05;97269.66;;;20.80;92.83
9746;BME280;4912;50.836;12.958;2023-07-30T04:50:36;97274.97;;;20.83;92.94
9746;BME280;4912;50.836;12.958;2023-07-30T04:53:09;97283.19;;;20.81;91.37
9746;BME280;4912;50.836;12.958;2023-07-30T04:55:42;97272.53;;;20.88;91.01
9746;BME280;4912;50.836;12.958;2023-07-30T04:58:15;97271.50;;;20.98;90.99
9746;BME280;4912;50.836;12.958;2023-07-30T05:00:46;97272.06;;;20.97;90.63
9746;BME280;4912;50.836;12.958;2023-07-30T05:03:16;97272.34;;;20.85;91.35
9746;BME280;4912;50.836;12.958;2023-07-30T05:05:47;97273.16;;;20.94;91.75
9746;BME280;4912;50.836;12.958;2023-07-30T05:08:17;97273.91;;;20.94;91.65
9746;BME280;4912;50.836;12.958;2023-07-30T05:10:51;97275.88;;;21.07;91.06
9746;BME280;4912;50.836;12.958;2023-07-30T05:13:21;97273.38;;;20.96;92.11
9746;BME280;4912;50.836;12.958;2023-07-30T05:15:52;97286.78;;;21.10;91.45
9746;BME280;4912;50.836;12.958;2023-07-30T05:18:22;97283.91;;;21.23;90.80
9746;BME280;4912;50.836;12.958;2023-07-30T05:20:53;97284.84;;;21.26;91.05
9746;BME280;4912;50.836;12.958;2023-07-30T05:23:24;97290.47;;;21.26;91.30
9746;BME280;4912;50.836;12.958;2023-07-30T05:25:57;97289.91;;;21.28;91.62
9746;BME280;4912;50.836;12.958;2023-07-30T05:28:28;97288.06;;;21.30;91.27
9746;BME280;4912;50.836;12.958;2023-07-30T05:30:58;97295.00;;;21.29;91.64
9746;BME280;4912;50.836;12.958;2023-07-30T05:33:28;97293.31;;;21.34;91.55
9746;BME280;4912;50.836;12.958;2023-07-30T05:35:59;97293.44;;;21.49;90.87
9746;BME280;4912;50.836;12.958;2023-07-30T05:38:29;97300.41;;;21.55;90.64
9746;BME280;4912;50.836;12.958;2023-07-30T05:41:02;97305.44;;;21.49;90.76
9746;BME280;4912;50.836;12.958;2023-07-30T05:43:33;97302.03;;;21.43;91.58
9746;BME280;4912;50.836;12.958;2023-07-30T05:46:03;97298.69;;;21.52;91.68
9746;BME280;4912;50.836;12.958;2023-07-30T05:48:34;97308.09;;;21.55;90.82
9746;BME280;4912;50.836;12.958;2023-07-30T05:51:05;97313.72;;;21.55;91.41
9746;BME280;4912;50.836;12.958;2023-07-30T05:53:35;97316.50;;;21.47;91.84
9746;BME280;4912;50.836;12.958;2023-07-30T05:56:08;97318.34;;;21.45;92.43
9746;BME280;4912;50.836;12.958;2023-07-30T05:58:41;97317.41;;;21.42;93.09
9746;BME280;4912;50.836;12.958;2023-07-30T06:01:11;97324.50;;;21.36;94.28
9746;BME280;4912;50.836;12.958;2023-07-30T06:03:42;97318.16;;;21.43;94.85
9746;BME280;4912;50.836;12.958;2023-07-30T06:06:12;97318.16;;;21.43;95.64
9746;BME280;4912;50.836;12.958;2023-07-30T06:08:43;97322.88;;;21.48;94.54
9746;BME280;4912;50.836;12.958;2023-07-30T06:11:16;97323.47;;;21.54;93.86
9746;BME280;4912;50.836;12.958;2023-07-30T06:13:46;97325.03;;;21.62;93.69
9746;BME280;4912;50.836;12.958;2023-07-30T06:16:17;97326.94;;;21.68;93.07
9746;BME280;4912;50.836;12.958;2023-07-30T06:18:49;97331.41;;;21.63;92.46
9746;BME280;4912;50.836;12.958;2023-07-30T06:21:19;97329.16;;;21.61;93.44
9746;BME280;4912;50.836;12.958;2023-07-30T06:23:49;97337.41;;;21.59;93.28
9746;BME280;4912;50.836;12.958;2023-07-30T06:26:22;97331.56;;;21.57;94.39
9746;BME280;4912;50.836;12.958;2023-07-30T06:28:53;97342.06;;;21.57;95.36
9746;BME280;4912;50.836;12.958;2023-07-30T06:31:24;97336.44;;;21.57;95.82
9746;BME280;4912;50.836;12.958;2023-07-30T06:33:54;97337.56;;;21.54;95.90
9746;BME280;4912;50.836;12.958;2023-07-30T06:36:25;97339.69;;;21.69;94.99
9746;BME280;4912;50.836;12.958;2023-07-30T06:38:56;97343.75;;;21.88;93.58
9746;BME280;4912;50.836;12.958;2023-07-30T06:41:29;97352.88;;;22.10;91.50
9746;BME280;4912;50.836;12.958;2023-07-30T06:43:59;97337.72;;;22.20;91.32
9746;BME280;4912;50.836;12.958;2023-07-30T06:46:30;97357.41;;;22.13;92.11
9746;BME280;4912;50.836;12.958;2023-07-30T06:49:00;97346.25;;;21.99;89.85
9746;BME280;4912;50.836;12.958;2023-07-30T06:51:31;97343.09;;;22.03;91.10
9746;BME280;4912;50.836;12.958;2023-07-30T06:54:01;97338.44;;;22.13;90.98
9746;BME280;4912;50.836;12.958;2023-07-30T06:56:35;97346.34;;;22.15;89.39
9746;BME280;4912;50.836;12.958;2023-07-30T06:59:05;97352.69;;;22.08;89.64
9746;BME280;4912;50.836;12.958;2023-07-30T07:01:35;97358.19;;;21.85;89.35
9746;BME280;4912;50.836;12.958;2023-07-30T07:04:07;97355.19;;;21.83;91.21
9746;BME280;4912;50.836;12.958;2023-07-30T07:06:37;97350.75;;;21.95;90.06
9746;BME280;4912;50.836;12.958;2023-07-30T07:09:07;97347.69;;;21.85;90.60
9746;BME280;4912;50.836;12.958;2023-07-30T07:11:40;97353.34;;;21.93;91.03
9746;BME280;4912;50.836;12.958;2023-07-30T07:14:11;97355.19;;;21.83;91.73
9746;BME280;4912;50.836;12.958;2023-07-30T07:16:41;97363.72;;;21.70;93.15
9746;BME280;4912;50.836;12.958;2023-07-30T07:19:12;97356.81;;;21.71;94.11
9746;BME280;4912;50.836;12.958;2023-07-30T07:21:42;97364.94;;;21.82;94.22
9746;BME280;4912;50.836;12.958;2023-07-30T07:24:12;97368.28;;;21.73;94.62
9746;BME280;4912;50.836;12.958;2023-07-30T07:26:45;97363.84;;;21.85;94.33
9746;BME280;4912;50.836;12.958;2023-07-30T07:29:16;97351.81;;;21.92;92.25
9746;BME280;4912;50.836;12.958;2023-07-30T07:31:47;97364.59;;;21.85;93.39
9746;BME280;4912;50.836;12.958;2023-07-30T07:34:17;97358.22;;;21.92;92.42
9746;BME280;4912;50.836;12.958;2023-07-30T07:36:49;97363.03;;;21.77;92.70
9746;BME280;4912;50.836;12.958;2023-07-30T07:39:19;97370.56;;;21.82;92.18
9746;BME280;4912;50.836;12.958;2023-07-30T07:41:53;97367.50;;;22.00;90.66
9746;BME280;4912;50.836;12.958;2023-07-30T07:44:23;97367.97;;;22.20;89.15
9746;BME280;4912;50.836;12.958;2023-07-30T07:46:54;97367.00;;;22.17;88.24
9746;BME280;4912;50.836;12.958;2023-07-30T07:49:24;97364.91;;;22.10;87.94
9746;BME280;4912;50.836;12.958;2023-07-30T07:51:55;97374.34;;;22.20;88.62
9746;BME280;4912;50.836;12.958;2023-07-30T07:54:25;97373.97;;;22.24;87.34
9746;BME280;4912;50.836;12.958;2023-07-30T07:56:58;97376.53;;;22.07;86.80
9746;BME280;4912;50.836;12.958;2023-07-30T07:59:29;97377.78;;;22.34;85.83
9746;BME280;4912;50.836;12.958;2023-07-30T08:01:59;97366.72;;;22.51;85.47
9746;BME280;4912;50.836;12.958;2023-07-30T08:04:30;97364.28;;;22.48;85.46
9746;BME280;4912;50.836;12.958;2023-07-30T08:07:00;97369.31;;;22.34;85.82
9746;BME280;4912;50.836;12.958;2023-07-30T08:09:31;97369.31;;;22.26;85.06
9746;BME280;4912;50.836;12.958;2023-07-30T08:12:05;97371.19;;;22.39;86.45
9746;BME280;4912;50.836;12.958;2023-07-30T08:14:36;97369.03;;;22.68;84.94
9746;BME280;4912;50.836;12.958;2023-07-30T08:17:06;97364.19;;;22.83;82.09
9746;BME280;4912;50.836;12.958;2023-07-30T08:19:37;97362.16;;;23.52;81.32
9746;BME280;4912;50.836;12.958;2023-07-30T08:22:07;97369.03;;;23.97;76.81
9746;BME280;4912;50.836;12.958;2023-07-30T08:24:37;97362.97;;;24.48;73.50
9746;BME280;4912;50.836;12.958;2023-07-30T08:27:11;97361.97;;;24.93;70.42
9746;BME280;4912;50.836;12.958;2023-07-30T08:29:41;97361.94;;;25.67;69.09
9746;BME280;4912;50.836;12.958;2023-07-30T08:32:12;97350.59;;;26.02;65.55
9746;BME280;4912;50.836;12.958;2023-07-30T08:34:43;97351.44;;;25.78;65.88
9746;BME280;4912;50.836;12.958;2023-07-30T08:37:13;97358.66;;;25.29;66.75
9746;BME280;4912;50.836;12.958;2023-07-30T08:39:44;97355.97;;;24.81;69.87
9746;BME280;4912;50.836;12.958;2023-07-30T08:42:19;97357.63;;;25.17;69.96
9746;BME280;4912;50.836;12.958;2023-07-30T08:44:49;97349.88;;;25.42;67.97
9746;BME280;4912;50.836;12.958;2023-07-30T08:47:20;97346.59;;;26.76;63.82
9746;BME280;4912;50.836;12.958;2023-07-30T08:49:51;97334.81;;;28.10;57.99
9746;BME280;4912;50.836;12.958;2023-07-30T08:52:22;97333.59;;;29.02;54.81
9746;BME280;4912;50.836;12.958;2023-07-30T08:54:54;97332.22;;;29.64;51.80
9746;BME280;4912;50.836;12.958;2023-07-30T08:57:30;97324.16;;;29.30;52.92
9746;BME280;4912;50.836;12.958;2023-07-30T09:00:03;97330.91;;;29.04;52.93
9746;BME280;4912;50.836;12.958;2023-07-30T09:02:38;97327.91;;;29.02;53.33
9746;BME280;4912;50.836;12.958;2023-07-30T09:05:12;97336.03;;;28.07;54.65
9746;BME280;4912;50.836;12.958;2023-07-30T09:07:43;97339.50;;;27.30;56.34
9746;BME280;4912;50.836;12.958;2023-07-30T09:10:14;97336.03;;;27.22;57.82
9746;BME280;4912;50.836;12.958;2023-07-30T09:12:52;97345.06;;;26.92;58.30
9746;BME280;4912;50.836;12.958;2023-07-30T09:15:32;97345.75;;;26.56;60.77
9746;BME280;4912;50.836;12.958;2023-07-30T09:18:05;97339.47;;;26.31;60.06
9746;BME280;4912;50.836;12.958;2023-07-30T09:20:40;97353.66;;;26.31;61.83
9746;BME280;4912;50.836;12.958;2023-07-30T09:23:11;97342.50;;;25.81;60.37
9746;BME280;4912;50.836;12.958;2023-07-30T09:25:42;97350.94;;;25.47;61.96
9746;BME280;4912;50.836;12.958;2023-07-30T09:28:18;97356.75;;;25.56;62.97
9746;BME280;4912;50.836;12.958;2023-07-30T09:30:49;97351.09;;;25.56;62.93
9746;BME280;4912;50.836;12.958;2023-07-30T09:33:22;97352.34;;;26.15;61.41
9746;BME280;4912;50.836;12.958;2023-07-30T09:35:54;97348.88;;;26.33;59.00
9746;BME280;4912;50.836;12.958;2023-07-30T09:38:25;97356.06;;;26.17;59.38
9746;BME280;4912;50.836;12.958;2023-07-30T09:41:00;97353.47;;;26.73;58.00
9746;BME280;4912;50.836;12.958;2023-07-30T09:43:35;97350.69;;;27.09;56.58
9746;BME280;4912;50.836;12.958;2023-07-30T09:46:06;97345.88;;;27.12;53.42
9746;BME280;4912;50.836;12.958;2023-07-30T09:48:38;97337.59;;;27.43;52.66
9746;BME280;4912;50.836;12.958;2023-07-30T09:51:09;97335.97;;;28.74;48.13
9746;BME280;4912;50.836;12.958;2023-07-30T09:53:40;97329.78;;;29.70;47.02
9746;BME280;4912;50.836;12.958;2023-07-30T09:56:12;97333.72;;;30.08;43.37
9746;BME280;4912;50.836;12.958;2023-07-30T09:58:45;97337.06;;;30.37;41.41
9746;BME280;4912;50.836;12.958;2023-07-30T10:01:17;97333.41;;;30.70;40.48
9746;BME280;4912;50.836;12.958;2023-07-30T10:03:49;97335.19;;;29.88;41.12
9746;BME280;4912;50.836;12.958;2023-07-30T10:06:20;97325.16;;;29.65;41.11
9746;BME280;4912;50.836;12.958;2023-07-30T10:08:53;97340.66;;;30.38;37.33
9746;BME280;4912;50.836;12.958;2023-07-30T10:11:27;97334.81;;;30.36;36.81
9746;BME280;4912;50.836;12.958;2023-07-30T10:14:02;97333.81;;;30.31;37.17
9746;BME280;4912;50.836;12.958;2023-07-30T10:16:33;97329.59;;;30.32;37.62
9746;BME280;4912;50.836;12.958;2023-07-30T10:19:04;97330.22;;;30.87;37.19
9746;BME280;4912;50.836;12.958;2023-07-30T10:21:35;97330.91;;;30.52;36.23
9746;BME280;4912;50.836;12.958;2023-07-30T10:24:06;97336.91;;;30.57;36.53
9746;BME280;4912;50.836;12.958;2023-07-30T10:26:37;97320.94;;;30.98;37.02
9746;BME280;4912;50.836;12.958;2023-07-30T10:29:16;97313.94;;;30.78;36.58
9746;BME280;4912;50.836;12.958;2023-07-30T10:31:53;97321.16;;;31.02;36.07
9746;BME280;4912;50.836;12.958;2023-07-30T10:34:27;97313.81;;;30.87;36.45
9746;BME280;4912;50.836;12.958;2023-07-30T10:37:18;97311.22;;;30.91;36.40
9746;BME280;4912;50.836;12.958;2023-07-30T10:39:51;97304.78;;;31.03;36.72
9746;BME280;4912;50.836;12.958;2023-07-30T10:42:22;97318.47;;;31.27;35.70
9746;BME280;4912;50.836;12.958;2023-07-30T10:44:57;97314.53;;;31.58;35.50
9746;BME280;4912;50.836;12.958;2023-07-30T10:47:28;97320.53;;;31.62;34.89
9746;BME280;4912;50.836;12.958;2023-07-30T10:50:04;97316.06;;;31.36;34.25
9746;BME280;4912;50.836;12.958;2023-07-30T10:52:36;97308.47;;;30.82;36.36
9746;BME280;4912;50.836;12.958;2023-07-30T10:55:07;97302.63;;;31.50;35.86
9746;BME280;4912;50.836;12.958;2023-07-30T10:57:38;97300.78;;;31.31;35.32
9746;BME280;4912;50.836;12.958;2023-07-30T11:00:13;97297.41;;;31.00;36.44
9746;BME280;4912;50.836;12.958;2023-07-30T11:02:53;97306.38;;;30.82;36.28
9746;BME280;4912;50.836;12.958;2023-07-30T11:05:23;97305.19;;;30.52;37.17
9746;BME280;4912;50.836;12.958;2023-07-30T11:07:55;97309.16;;;30.47;37.30
9746;BME280;4912;50.836;12.958;2023-07-30T11:10:26;97304.63;;;31.01;37.01
9746;BME280;4912;50.836;12.958;2023-07-30T11:13:00;97295.63;;;32.13;35.17
9746;BME280;4912;50.836;12.958;2023-07-30T11:15:33;97299.38;;;31.67;35.24
9746;BME280;4912;50.836;12.958;2023-07-30T11:18:04;97292.84;;;31.18;36.95
9746;BME280;4912;50.836;12.958;2023-07-30T11:20:35;97293.25;;;30.44;37.93
9746;BME280;4912;50.836;12.958;2023-07-30T11:23:20;97301.06;;;29.78;38.64
9746;BME280;4912;50.836;12.958;2023-07-30T11:25:51;97294.78;;;29.27;39.18
9746;BME280;4912;50.836;12.958;2023-07-30T11:28:28;97294.47;;;29.02;40.13
9746;BME280;4912;50.836;12.958;2023-07-30T11:31:07;97291.16;;;28.65;40.43
9746;BME280;4912;50.836;12.958;2023-07-30T11:33:41;97297.53;;;28.35;41.43
9746;BME280;4912;50.836;12.958;2023-07-30T11:36:15;97303.56;;;28.20;41.53
9746;BME280;4912;50.836;12.958;2023-07-30T11:38:47;97304.44;;;28.32;40.39
9746;BME280;4912;50.836;12.958;2023-07-30T11:41:20;97284.72;;;28.65;40.18
9746;BME280;4912;50.836;12.958;2023-07-30T11:43:52;97299.50;;;28.23;40.94
9746;BME280;4912;50.836;12.958;2023-07-30T11:46:25;97295.47;;;28.06;41.58
9746;BME280;4912;50.836;12.958;2023-07-30T11:49:11;97287.09;;;27.89;42.25
9746;BME280;4912;50.836;12.958;2023-07-30T11:51:45;97283.94;;;27.66;42.82
9746;BME280;4912;50.836;12.958;2023-07-30T11:54:20;97288.72;;;27.92;41.86
9746;BME280;4912;50.836;12.958;2023-07-30T11:56:54;97289.47;;;28.31;41.86
9746;BME280;4912;50.836;12.958;2023-07-30T11:59:25;97286.97;;;29.28;40.78
9746;BME280;4912;50.836;12.958;2023-07-30T12:01:59;97278.09;;;29.34;40.30
9746;BME280;4912;50.836;12.958;2023-07-30T12:04:31;97288.97;;;29.68;39.94
9746;BME280;4912;50.836;12.958;2023-07-30T12:07:09;97283.63;;;30.49;38.12
9746;BME280;4912;50.836;12.958;2023-07-30T12:09:40;97281.44;;;29.51;38.26
9746;BME280;4912;50.836;12.958;2023-07-30T12:12:11;97276.00;;;29.98;38.16
9746;BME280;4912;50.836;12.958;2023-07-30T12:14:53;97272.59;;;31.25;35.57
9746;BME280;4912;50.836;12.958;2023-07-30T12:17:27;97267.34;;;32.58;33.71
9746;BME280;4912;50.836;12.958;2023-07-30T12:20:00;97274.22;;;32.14;33.37
9746;BME280;4912;50.836;12.958;2023-07-30T12:22:34;97274.44;;;32.43;35.19
9746;BME280;4912;50.836;12.958;2023-07-30T12:25:06;97268.19;;;33.41;34.63
9746;BME280;4912;50.836;12.958;2023-07-30T12:27:38;97272.97;;;33.50;32.86
9746;BME280;4912;50.836;12.958;2023-07-30T12:30:10;97257.31;;;32.71;33.39
9746;BME280;4912;50.836;12.958;2023-07-30T12:32:43;97264.78;;;32.89;33.17
9746;BME280;4912;50.836;12.958;2023-07-30T12:35:14;97255.94;;;32.33;34.02
9746;BME280;4912;50.836;12.958;2023-07-30T12:37:45;97259.59;;;31.96;35.71
9746;BME280;4912;50.836;12.958;2023-07-30T12:40:16;97261.56;;;30.40;37.75
9746;BME280;4912;50.836;12.958;2023-07-30T12:42:47;97262.13;;;30.48;38.01
9746;BME280;4912;50.836;12.958;2023-07-30T12:45:18;97249.09;;;30.01;38.63
9746;BME280;4912;50.836;12.958;2023-07-30T12:47:51;97252.84;;;30.71;38.39
9746;BME280;4912;50.836;12.958;2023-07-30T12:50:22;97252.13;;;31.54;36.77
9746;BME280;4912;50.836;12.958;2023-07-30T12:52:53;97250.00;;;32.68;35.40
9746;BME280;4912;50.836;12.958;2023-07-30T12:55:24;97251.91;;;31.50;36.15
9746;BME280;4912;50.836;12.958;2023-07-30T12:57:55;97257.97;;;30.40;38.10
9746;BME280;4912;50.836;12.958;2023-07-30T13:00:26;97256.94;;;30.80;38.40
9746;BME280;4912;50.836;12.958;2023-07-30T13:02:59;97247.56;;;31.49;36.81
9746;BME280;4912;50.836;12.958;2023-07-30T13:05:30;97242.50;;;31.24;36.50
9746;BME280;4912;50.836;12.958;2023-07-30T13:08:01;97251.72;;;30.76;35.84
9746;BME280;4912;50.836;12.958;2023-07-30T13:10:32;97251.50;;;29.62;38.54
9746;BME280;4912;50.836;12.958;2023-07-30T13:13:03;97252.81;;;28.97;40.45
9746;BME280;4912;50.836;12.958;2023-07-30T13:15:33;97254.75;;;28.14;42.34
9746;BME280;4912;50.836;12.958;2023-07-30T13:18:07;97252.81;;;27.87;42.85
9746;BME280;4912;50.836;12.958;2023-07-30T13:20:38;97242.34;;;27.70;43.03
9746;BME280;4912;50.836;12.958;2023-07-30T13:23:08;97242.97;;;27.59;43.56
9746;BME280;4912;50.836;12.958;2023-07-30T13:25:39;97238.13;;;27.23;44.40
9746;BME280;4912;50.836;12.958;2023-07-30T13:28:10;97239.44;;;27.03;45.78
9746;BME280;4912;50.836;12.958;2023-07-30T13:30:41;97239.59;;;27.05;44.02
9746;BME280;4912;50.836;12.958;2023-07-30T13:33:15;97239.44;;;27.03;44.28
9746;BME280;4912;50.836;12.958;2023-07-30T13:35:46;97223.31;;;27.25;43.83